logo
Search for airport 
image banner adimage banner adimage banner ad
image banner ad

2B9 - Post Mills

Located in Post Mills, United States

ICAO - 2B9, IATA -

Data provided by Airmate  

General information

Coordinates: N43°53'1" W72°15'7"
Elevation is 696 feet MSL.
Magnetic variation is -16° East
View others Airports in Vermont

Operational data

Special qualification required
Current time UTC:
Current local time:
Weather at : KLEB - Lebanon Muni ( 29 km )
METAR: KLEB 140353Z AUTO 31007KT 10SM SCT019 SCT028 BKN042 04/00 A2968 RMK AO2 SLP053 T00440000
TAF: KLEB 140331Z 1404/1424 31010G17KT P6SM VCSH SCT020 BKN025 OVC035 TEMPO 1404/1406 SCT025 OVC060 FM140600 28006KT P6SM BKN035 FM141600 21008KT P6SM BKN050
View NOTAMs / SUP AIP / TFR affecting this airport [VIEW]
Communications frequencies: [VIEW]

Runways:

RWY identifierQFULength (ft)Width (ft)SurfaceLDA (ft)
04290080GRASS
22290080GRASS
0533°230080GRASS
23213°230080GRASS

Airport contact information

Address: Post Mills United States

Satellite view of 2B9